createdAt,value
2023-04-03T00:01:43.125Z,4.63
2023-04-03T00:04:27.072Z,4.60
2023-04-03T00:07:11.299Z,4.50
2023-04-03T00:09:56.590Z,4.30
2023-04-03T00:12:40.342Z,4.17
2023-04-03T00:15:24.046Z,3.97
2023-04-03T00:18:08.753Z,4.17
2023-04-03T00:20:52.828Z,3.87
2023-04-03T00:23:36.728Z,3.50
2023-04-03T00:26:21.911Z,4.23
2023-04-03T00:29:05.627Z,4.67
2023-04-03T00:31:50.582Z,4.13
2023-04-03T00:34:34.329Z,3.57
2023-04-03T00:37:18.066Z,3.63
2023-04-03T00:40:01.840Z,3.13
2023-04-03T00:42:50.485Z,3.30
2023-04-03T00:45:38.785Z,4.00
2023-04-03T00:48:27.153Z,3.83
2023-04-03T00:51:15.153Z,3.63
2023-04-03T00:54:03.310Z,4.03
2023-04-03T00:56:47.719Z,3.73
2023-04-03T00:59:36.688Z,4.20
2023-04-03T01:02:20.400Z,4.50
2023-04-03T01:05:04.510Z,3.73
2023-04-03T01:07:49.706Z,2.90
2023-04-03T01:10:33.374Z,3.30
2023-04-03T01:13:24.586Z,3.23
2023-04-03T01:16:10.634Z,2.93
2023-04-03T01:18:54.540Z,3.00
2023-04-03T01:22:05.055Z,2.13
2023-04-03T01:24:48.901Z,2.20
2023-04-03T01:27:32.825Z,3.10
2023-04-03T01:30:19.883Z,5.13
2023-04-03T01:33:05.259Z,2.20
2023-04-03T01:35:49.909Z,3.33
2023-04-03T01:38:34.038Z,2.73
2023-04-03T01:41:18.082Z,2.40
2023-04-03T01:44:03.486Z,2.60
2023-04-03T01:46:47.511Z,2.00
2023-04-03T01:49:33.018Z,2.53
2023-04-03T01:52:16.928Z,2.47
2023-04-03T01:55:00.878Z,3.37
2023-04-03T01:57:44.787Z,2.83
2023-04-03T02:00:28.772Z,4.97
2023-04-03T02:03:12.616Z,2.87
2023-04-03T02:05:58.031Z,2.30
2023-04-03T02:08:42.728Z,1.73
2023-04-03T02:11:26.600Z,1.80
2023-04-03T02:14:10.703Z,2.53
2023-04-03T02:17:14.486Z,2.00
2023-04-03T02:19:58.425Z,2.20
2023-04-03T02:22:43.567Z,3.23
2023-04-03T02:25:27.466Z,2.37
2023-04-03T02:28:11.338Z,4.40
2023-04-03T02:30:55.086Z,3.80
2023-04-03T02:33:39.195Z,4.53
2023-04-03T02:36:25.876Z,4.43
2023-04-03T02:39:15.867Z,5.43
2023-04-03T02:42:00.089Z,5.17
2023-04-03T02:44:45.624Z,4.33
2023-04-03T02:47:29.849Z,2.83
2023-04-03T02:50:13.838Z,2.83
2023-04-03T02:52:57.804Z,3.10
2023-04-03T02:55:43.317Z,3.30
2023-04-03T02:58:27.382Z,3.00
2023-04-03T03:01:14.342Z,3.20
2023-04-03T03:03:58.173Z,2.97
2023-04-03T03:06:43.601Z,2.70
2023-04-03T03:09:28.942Z,3.67
2023-04-03T03:12:14.012Z,3.23
2023-04-03T03:14:57.778Z,3.53
2023-04-03T03:17:41.650Z,2.90
2023-04-03T03:20:25.746Z,2.60
2023-04-03T03:23:09.613Z,3.20
2023-04-03T03:25:57.614Z,2.40
2023-04-03T03:28:43.000Z,2.70
2023-04-03T03:31:29.116Z,2.60
2023-04-03T03:34:13.222Z,2.50
2023-04-03T03:36:57.261Z,2.40
2023-04-03T03:39:41.323Z,2.67
2023-04-03T03:42:25.267Z,3.50
2023-04-03T03:45:12.374Z,2.90
2023-04-03T03:47:56.414Z,2.90
2023-04-03T03:50:40.878Z,2.90
2023-04-03T03:53:24.926Z,3.20
2023-04-03T03:56:11.608Z,3.03
2023-04-03T03:58:57.648Z,4.20
2023-04-03T04:01:42.970Z,3.90
2023-04-03T04:04:26.921Z,4.80
2023-04-03T04:07:10.716Z,3.90
2023-04-03T04:09:55.007Z,4.47
2023-04-03T04:12:38.866Z,4.67
2023-04-03T04:15:24.020Z,5.30
2023-04-03T04:18:09.606Z,4.50
2023-04-03T04:20:53.663Z,4.60
2023-04-03T04:23:38.607Z,4.90
2023-04-03T04:26:23.048Z,4.43
2023-04-03T04:29:07.148Z,4.00
2023-04-03T04:31:53.158Z,4.80
2023-04-03T04:34:40.013Z,5.53
2023-04-03T04:37:24.056Z,4.90
2023-04-03T04:40:09.276Z,5.77
2023-04-03T04:42:53.292Z,6.53
2023-04-03T04:45:38.018Z,7.00
2023-04-03T04:48:22.273Z,3.17
2023-04-03T04:51:07.612Z,2.03
2023-04-03T04:53:56.061Z,2.33
2023-04-03T04:56:41.019Z,2.20
2023-04-03T04:59:24.973Z,2.00
2023-04-03T05:02:11.131Z,2.03
2023-04-03T05:04:57.298Z,2.10
2023-04-03T05:07:46.317Z,2.20
2023-04-03T05:10:30.228Z,1.90
2023-04-03T05:13:14.231Z,1.80
2023-04-03T05:15:58.868Z,2.17
2023-04-03T05:18:43.280Z,2.20
2023-04-03T05:21:34.159Z,2.00
2023-04-03T05:24:24.138Z,2.10
2023-04-03T05:27:07.964Z,1.90
2023-04-03T05:29:56.364Z,2.23
2023-04-03T05:32:41.153Z,1.87
2023-04-03T05:35:32.615Z,2.00
2023-04-03T05:38:19.062Z,2.10
2023-04-03T05:41:05.141Z,1.93
2023-04-03T05:43:49.227Z,1.50
2023-04-03T05:46:34.110Z,1.97
2023-04-03T05:49:21.379Z,2.10
2023-04-03T05:52:05.621Z,1.90
2023-04-03T05:54:50.703Z,2.10
2023-04-03T05:57:42.028Z,1.97
2023-04-03T06:00:26.418Z,2.20
2023-04-03T06:03:18.058Z,2.40
2023-04-03T06:06:05.476Z,2.30
2023-04-03T06:08:49.369Z,2.37
2023-04-03T06:11:33.138Z,2.10
2023-04-03T06:14:18.417Z,2.37
2023-04-03T06:17:02.865Z,2.10
2023-04-03T06:19:46.954Z,2.27
2023-04-03T06:22:31.927Z,2.37
2023-04-03T06:25:15.733Z,2.57
2023-04-03T06:27:59.714Z,2.50
2023-04-03T06:30:44.847Z,2.43
2023-04-03T06:33:28.574Z,2.50
2023-04-03T06:36:13.834Z,2.83
2023-04-03T06:38:58.006Z,2.47
2023-04-03T06:41:41.649Z,2.50
2023-04-03T06:44:25.619Z,2.53
2023-04-03T06:47:13.852Z,2.67
2023-04-03T06:49:57.632Z,2.77
2023-04-03T06:52:41.547Z,2.40
2023-04-03T06:55:25.362Z,2.80
2023-04-03T06:58:09.138Z,2.97
2023-04-03T07:00:52.925Z,2.50
2023-04-03T07:03:38.225Z,2.60
2023-04-03T07:06:22.125Z,2.57
2023-04-03T07:09:05.929Z,3.40
2023-04-03T07:11:49.678Z,6.37
2023-04-03T07:14:33.478Z,2.97
2023-04-03T07:17:17.410Z,5.07
2023-04-03T07:20:02.629Z,2.57
2023-04-03T07:22:49.006Z,2.30
2023-04-03T07:25:34.847Z,2.20
2023-04-03T07:28:20.388Z,3.13
2023-04-03T07:31:07.149Z,3.37
2023-04-03T07:33:51.089Z,6.53
2023-04-03T07:36:37.212Z,3.47
2023-04-03T07:39:21.338Z,3.23
2023-04-03T07:42:05.114Z,15.23
2023-04-03T07:44:49.031Z,7.13
2023-04-03T07:47:33.456Z,2.50
2023-04-03T07:50:17.723Z,2.33
2023-04-03T07:53:02.880Z,3.83
2023-04-03T07:55:48.596Z,3.50
2023-04-03T07:58:32.669Z,3.80
2023-04-03T08:01:16.500Z,2.55
2023-04-03T08:04:00.537Z,2.28
2023-04-03T08:06:46.857Z,2.47
2023-04-03T08:09:32.557Z,2.08
2023-04-03T08:12:16.521Z,1.98
2023-04-03T08:15:02.633Z,2.30
2023-04-03T08:17:47.103Z,2.38
2023-04-03T08:20:31.314Z,2.83
2023-04-03T08:23:17.611Z,1.88
2023-04-03T08:26:09.516Z,2.50
2023-04-03T08:28:53.474Z,1.85
2023-04-03T08:31:37.795Z,2.20
2023-04-03T08:34:22.358Z,2.08
2023-04-03T08:37:06.747Z,3.67
2023-04-03T08:39:51.189Z,1.70
2023-04-03T08:42:50.246Z,2.40
2023-04-03T08:45:45.299Z,2.60
2023-04-03T08:48:33.433Z,3.15
2023-04-03T08:51:19.713Z,2.50
2023-04-03T08:54:10.208Z,2.75
2023-04-03T08:56:55.186Z,2.70
2023-04-03T08:59:41.825Z,2.28
2023-04-03T09:02:35.269Z,2.90
2023-04-03T09:05:23.007Z,2.40
2023-04-03T09:08:15.036Z,2.60
2023-04-03T09:11:12.228Z,2.63
2023-04-03T09:14:02.218Z,3.33
2023-04-03T09:16:55.102Z,4.68
2023-04-03T09:19:47.140Z,4.10
2023-04-03T09:22:41.778Z,4.18
2023-04-03T09:25:32.190Z,4.63
2023-04-03T09:28:16.980Z,4.50
2023-04-03T09:31:02.589Z,3.80
2023-04-03T09:33:48.208Z,5.35
2023-04-03T09:36:42.657Z,5.03
2023-04-03T09:39:29.309Z,5.18
2023-04-03T09:42:20.665Z,5.03
2023-04-03T09:45:07.823Z,4.55
2023-04-03T09:48:08.323Z,5.22
2023-04-03T09:51:02.820Z,4.25
2023-04-03T09:53:47.191Z,4.72
2023-04-03T09:56:32.706Z,4.82
2023-04-03T09:59:18.024Z,6.88
2023-04-03T10:02:05.567Z,5.38
2023-04-03T10:04:58.714Z,7.75
2023-04-03T10:07:58.299Z,8.10
2023-04-03T10:10:50.291Z,6.40
2023-04-03T10:13:45.213Z,5.90
2023-04-03T10:16:40.441Z,6.13
2023-04-03T10:19:36.993Z,6.13
2023-04-03T10:22:33.535Z,6.07
2023-04-03T10:25:26.469Z,5.38
2023-04-03T10:28:17.331Z,5.78
2023-04-03T10:31:12.726Z,5.47
2023-04-03T10:34:07.368Z,6.65
2023-04-03T10:36:59.966Z,6.40
2023-04-03T10:39:54.135Z,6.13
2023-04-03T10:42:48.556Z,6.05
2023-04-03T10:45:48.683Z,6.22
2023-04-03T10:48:44.717Z,6.38
2023-04-03T10:51:35.759Z,5.18
2023-04-03T10:54:27.213Z,5.25
2023-04-03T10:57:14.064Z,5.43
2023-04-03T11:00:03.757Z,4.57
2023-04-03T11:02:53.673Z,4.85
2023-04-03T11:05:43.415Z,5.85
2023-04-03T11:08:34.936Z,5.20
2023-04-03T11:11:22.789Z,5.28
2023-04-03T11:14:17.299Z,4.97
2023-04-03T11:17:19.015Z,5.35
2023-04-03T11:20:09.051Z,5.32
2023-04-03T11:22:59.953Z,5.95
2023-04-03T11:25:45.895Z,8.80
2023-04-03T11:28:30.052Z,8.05
2023-04-03T11:31:44.461Z,5.40
2023-04-03T11:34:39.465Z,5.30
2023-04-03T11:37:31.030Z,4.88
2023-04-03T11:40:24.899Z,5.30
2023-04-03T11:43:23.157Z,4.65
2023-04-03T11:46:08.833Z,5.22
2023-04-03T11:49:00.116Z,4.63
2023-04-03T11:51:54.210Z,4.38
2023-04-03T11:54:54.833Z,4.80
2023-04-03T11:57:53.389Z,4.38
2023-04-03T12:00:57.501Z,4.72
2023-04-03T12:04:01.249Z,4.35
2023-04-03T12:07:06.035Z,3.65
2023-04-03T12:10:08.744Z,4.32
2023-04-03T12:13:04.489Z,3.80
2023-04-03T12:16:02.542Z,4.00
2023-04-03T12:19:03.365Z,4.40
2023-04-03T12:22:27.749Z,7.65
2023-04-03T12:25:56.039Z,6.50
2023-04-03T12:28:49.586Z,6.40
2023-04-03T12:31:49.731Z,5.07
2023-04-03T12:34:54.668Z,5.20
2023-04-03T12:38:03.057Z,13.43
2023-04-03T12:40:55.969Z,4.30
2023-04-03T12:44:05.196Z,4.50
2023-04-03T12:46:57.128Z,6.60
2023-04-03T12:49:54.203Z,3.78
2023-04-03T12:52:53.550Z,3.88
2023-04-03T12:55:44.346Z,3.50
2023-04-03T12:58:41.602Z,3.97
2023-04-03T13:01:32.356Z,3.30
2023-04-03T13:04:21.979Z,3.08
2023-04-03T13:07:25.992Z,4.00
2023-04-03T13:10:22.411Z,3.85
2023-04-03T13:13:16.100Z,3.40
2023-04-03T13:16:13.659Z,4.47
2023-04-03T13:19:05.552Z,3.72
2023-04-03T13:21:58.562Z,4.07
2023-04-03T13:24:49.030Z,4.00
2023-04-03T13:27:35.991Z,4.53
2023-04-03T13:30:29.260Z,3.92
2023-04-03T13:33:24.259Z,4.80
2023-04-03T13:36:18.153Z,4.90
2023-04-03T13:39:05.476Z,4.88
2023-04-03T13:41:51.230Z,4.30
2023-04-03T13:44:37.948Z,12.00
2023-04-03T13:47:26.396Z,5.80
2023-04-03T13:50:18.457Z,5.15
2023-04-03T13:53:11.277Z,4.32
2023-04-03T13:56:02.789Z,4.53
2023-04-03T13:58:58.101Z,4.35
2023-04-03T14:01:49.527Z,6.10
2023-04-03T14:04:48.485Z,4.57
2023-04-03T14:07:33.668Z,4.50
2023-04-03T14:10:17.929Z,5.10
2023-04-03T14:13:05.353Z,4.33
2023-04-03T14:15:52.381Z,4.77
2023-04-03T14:18:38.034Z,4.80
2023-04-03T14:21:24.454Z,4.77
2023-04-03T14:24:08.980Z,5.13
2023-04-03T14:26:55.156Z,4.67
2023-04-03T14:29:39.110Z,5.07
2023-04-03T14:32:25.010Z,5.80
2023-04-03T14:35:09.659Z,4.93
2023-04-03T14:37:56.402Z,4.63
2023-04-03T14:40:41.358Z,5.03
2023-04-03T14:43:26.288Z,6.00
2023-04-03T14:46:15.894Z,5.57
2023-04-03T14:49:00.158Z,4.33
2023-04-03T14:51:44.652Z,6.10
2023-04-03T14:54:30.597Z,7.10
2023-04-03T14:57:16.965Z,5.50
2023-04-03T15:00:01.976Z,5.97
2023-04-03T15:02:48.890Z,4.80
2023-04-03T15:05:33.037Z,6.40
2023-04-03T15:08:23.665Z,5.07
2023-04-03T15:11:09.170Z,4.93
2023-04-03T15:13:53.389Z,4.37
2023-04-03T15:16:37.470Z,4.57
2023-04-03T15:19:21.649Z,5.03
2023-04-03T15:22:05.443Z,5.00
2023-04-03T15:24:49.738Z,4.53
2023-04-03T15:27:35.168Z,4.20
2023-04-03T15:30:21.280Z,5.20
2023-04-03T15:33:05.251Z,4.63
2023-04-03T15:35:49.232Z,6.00
2023-04-03T15:38:33.465Z,4.97
2023-04-03T15:41:17.603Z,6.10
2023-04-03T15:44:02.928Z,6.67
2023-04-03T15:46:47.755Z,5.40
2023-04-03T15:49:32.145Z,5.63
2023-04-03T15:52:17.794Z,4.70
2023-04-03T15:55:01.787Z,5.27
2023-04-03T15:57:46.489Z,4.60
2023-04-03T16:00:33.045Z,6.30
2023-04-03T16:03:20.636Z,5.93
2023-04-03T16:06:04.696Z,5.93
2023-04-03T16:08:50.402Z,6.30
2023-04-03T16:11:36.105Z,6.30
2023-04-03T16:14:19.873Z,6.07
2023-04-03T16:17:05.210Z,6.53
2023-04-03T16:19:49.056Z,7.27
2023-04-03T16:22:33.081Z,7.50
2023-04-03T16:25:17.036Z,7.30
2023-04-03T16:28:01.166Z,6.80
2023-04-03T16:30:47.156Z,6.23
2023-04-03T16:33:33.355Z,7.03
2023-04-03T16:36:17.575Z,6.37
2023-04-03T16:39:01.691Z,7.50
2023-04-03T16:41:46.553Z,6.20
2023-04-03T16:44:30.956Z,8.13
2023-04-03T16:47:16.435Z,8.47
2023-04-03T16:50:02.233Z,9.63
2023-04-03T16:52:47.932Z,12.27
2023-04-03T16:55:32.836Z,13.53
2023-04-03T16:58:17.387Z,8.23
2023-04-03T17:01:10.780Z,7.40
2023-04-03T17:03:55.696Z,9.07
2023-04-03T17:06:42.251Z,9.33
2023-04-03T17:09:26.666Z,9.40
2023-04-03T17:12:11.115Z,8.43
2023-04-03T17:14:55.883Z,9.87
2023-04-03T17:17:40.208Z,8.53
2023-04-03T17:20:24.910Z,11.03
2023-04-03T17:23:10.518Z,8.40
2023-04-03T17:25:55.552Z,7.37
2023-04-03T17:28:41.141Z,7.90
2023-04-03T17:31:25.772Z,7.20
2023-04-03T17:34:12.760Z,10.30
2023-04-03T17:36:57.767Z,10.83
2023-04-03T17:39:44.018Z,8.53
2023-04-03T17:42:28.956Z,6.70
2023-04-03T17:45:13.972Z,6.27
2023-04-03T17:47:58.738Z,5.83
2023-04-03T17:50:44.139Z,6.13
2023-04-03T17:53:29.598Z,5.60
2023-04-03T17:56:18.192Z,5.60
2023-04-03T17:59:03.071Z,5.03
2023-04-03T18:01:48.528Z,5.97
2023-04-03T18:04:33.380Z,5.77
2023-04-03T18:07:17.783Z,5.07
2023-04-03T18:10:05.765Z,6.10
2023-04-03T18:12:53.851Z,6.20
2023-04-03T18:15:44.480Z,7.53
2023-04-03T18:18:29.807Z,6.57
2023-04-03T18:21:16.348Z,8.87
2023-04-03T18:24:01.452Z,8.93
2023-04-03T18:26:50.111Z,9.03
2023-04-03T18:29:40.152Z,11.40
2023-04-03T18:32:26.124Z,10.63
2023-04-03T18:35:12.460Z,11.30
2023-04-03T18:37:57.992Z,7.40
2023-04-03T18:40:45.478Z,6.60
2023-04-03T18:43:30.907Z,7.10
2023-04-03T18:46:17.712Z,6.27
2023-04-03T18:49:03.099Z,5.80
2023-04-03T18:51:48.940Z,7.73
2023-04-03T18:54:34.592Z,6.23
2023-04-03T18:57:20.500Z,5.07
2023-04-03T19:00:07.330Z,6.10
2023-04-03T19:02:54.179Z,5.53
2023-04-03T19:05:40.998Z,6.73
2023-04-03T19:08:26.839Z,6.03
2023-04-03T19:11:12.025Z,5.40
2023-04-03T19:14:04.318Z,5.10
2023-04-03T19:16:59.670Z,6.07
2023-04-03T19:19:46.412Z,5.53
2023-04-03T19:22:32.419Z,5.20
2023-04-03T19:25:17.696Z,6.07
2023-04-03T19:28:02.758Z,6.70
2023-04-03T19:30:49.102Z,5.50
2023-04-03T19:33:34.472Z,6.60
2023-04-03T19:36:21.304Z,5.83
2023-04-03T19:39:06.353Z,5.27
2023-04-03T19:41:51.215Z,5.67
2023-04-03T19:44:39.197Z,6.00
2023-04-03T19:47:23.910Z,5.37
2023-04-03T19:50:09.115Z,6.00
2023-04-03T19:52:54.789Z,7.00
2023-04-03T19:55:39.099Z,5.77
2023-04-03T19:58:23.442Z,6.17
2023-04-03T20:01:07.451Z,5.83
2023-04-03T20:03:51.933Z,6.23
2023-04-03T20:06:36.907Z,5.17
2023-04-03T20:09:22.695Z,6.50
2023-04-03T20:12:09.809Z,4.93
2023-04-03T20:14:53.951Z,4.83
2023-04-03T20:17:38.668Z,5.63
2023-04-03T20:20:23.229Z,5.87
2023-04-03T20:23:08.357Z,4.90
2023-04-03T20:26:06.556Z,5.53
2023-04-03T20:28:55.926Z,4.93
2023-04-03T20:31:40.755Z,5.03
2023-04-03T20:34:25.091Z,6.33
2023-04-03T20:37:09.253Z,5.30
2023-04-03T20:39:53.219Z,5.83
2023-04-03T20:42:38.907Z,4.63
2023-04-03T20:45:23.212Z,5.30
2023-04-03T20:48:07.420Z,5.47
2023-04-03T20:50:52.121Z,5.73
2023-04-03T20:53:36.170Z,5.93
2023-04-03T20:56:20.191Z,5.77
2023-04-03T20:59:06.062Z,6.67
2023-04-03T21:01:50.141Z,5.57
2023-04-03T21:04:39.848Z,8.80
2023-04-03T21:08:02.301Z,6.73
2023-04-03T21:11:23.949Z,7.33
2023-04-03T21:14:46.054Z,7.33
2023-04-03T21:17:29.538Z,7.80
2023-04-03T21:20:15.122Z,7.17
2023-04-03T21:22:59.005Z,7.57
2023-04-03T21:25:43.022Z,7.70
2023-04-03T21:28:27.500Z,9.37
2023-04-03T21:31:11.981Z,9.27
2023-04-03T21:33:55.752Z,10.47
2023-04-03T21:36:42.976Z,9.37
2023-04-03T21:39:27.230Z,9.00
2023-04-03T21:42:11.107Z,9.40
2023-04-03T21:44:55.056Z,9.27
2023-04-03T21:47:40.199Z,11.40
2023-04-03T21:50:24.120Z,11.20
2023-04-03T21:53:09.410Z,9.70
2023-04-03T21:55:57.377Z,11.00
2023-04-03T21:58:41.583Z,9.43
2023-04-03T22:01:25.706Z,11.27
2023-04-03T22:04:09.876Z,10.83
2023-04-03T22:06:53.755Z,9.60
2023-04-03T22:09:38.940Z,9.63
2023-04-03T22:12:23.175Z,8.97
2023-04-03T22:15:09.058Z,7.90
2023-04-03T22:17:52.978Z,8.97
2023-04-03T22:20:37.415Z,9.30
2023-04-03T22:23:21.183Z,8.83
2023-04-03T22:26:08.758Z,9.60
2023-04-03T22:28:53.044Z,8.43
2023-04-03T22:31:38.117Z,7.47
2023-04-03T22:34:24.649Z,7.53
2023-04-03T22:37:08.877Z,6.37
2023-04-03T22:39:54.002Z,6.70
2023-04-03T22:42:39.694Z,7.90
2023-04-03T22:45:23.854Z,8.20
2023-04-03T22:48:08.349Z,6.83
2023-04-03T22:50:52.859Z,6.80
2023-04-03T22:53:37.267Z,7.00
2023-04-03T22:56:23.924Z,6.57
2023-04-03T22:59:11.301Z,7.03
2023-04-03T23:01:55.635Z,6.57
2023-04-03T23:04:39.883Z,6.80
2023-04-03T23:07:24.288Z,8.60
2023-04-03T23:10:09.132Z,5.97
2023-04-03T23:12:53.108Z,6.63
2023-04-03T23:15:38.833Z,6.27
2023-04-03T23:18:23.064Z,7.53
2023-04-03T23:21:08.090Z,7.70
2023-04-03T23:23:52.101Z,7.43
2023-04-03T23:26:36.092Z,8.07
2023-04-03T23:29:19.948Z,7.20
2023-04-03T23:32:05.776Z,9.27
2023-04-03T23:34:49.623Z,8.73
2023-04-03T23:37:33.803Z,8.87
2023-04-03T23:40:17.975Z,7.60
2023-04-03T23:43:02.096Z,7.57
2023-04-03T23:45:46.928Z,7.93
2023-04-03T23:48:32.368Z,6.60
2023-04-03T23:51:16.325Z,6.77
2023-04-03T23:54:00.140Z,7.23
2023-04-03T23:56:44.085Z,6.67
2023-04-03T23:59:28.280Z,6.10
